Time;durP1;ratioP1;P1;durP2;ratioP2;P2;SDS_P1;SDS_P2;PMS_P1;PMS_P2;Temp;Humidity;BMP_temperature;BMP_pressure;BME280_temperature;BME280_humidity;BME280_pressure;Samples;Min_cycle;Max_cycle;Signal;HPM_P1;HPM_P2
2024/04/23 00:01:27;;;;;;;1.50;1.40;;;;;;;;;;5450354;26;20243;-37
2024/04/23 00:03:53;;;;;;;1.75;1.50;;;;;;;;;;5433585;26;20610;-37
2024/04/23 00:06:19;;;;;;;1.77;1.45;;;;;;;;;;5445085;26;20316;-37
2024/04/23 00:08:45;;;;;;;1.50;1.40;;;;;;;;;;5438731;26;20235;-36
2024/04/23 00:11:11;;;;;;;1.52;1.40;;;;;;;;;;5443452;26;20291;-36
2024/04/23 00:13:37;;;;;;;2.40;1.20;;;;;;;;;;5446413;26;20223;-36
2024/04/23 00:16:03;;;;;;;2.08;1.60;;;;;;;;;;5449784;26;20217;-36
2024/04/23 00:18:29;;;;;;;1.55;1.30;;;;;;;;;;5448077;26;20515;-36
2024/04/23 00:20:55;;;;;;;1.60;1.50;;;;;;;;;;5447265;26;20461;-36
2024/04/23 00:23:22;;;;;;;1.40;1.20;;;;;;;;;;5442194;26;20282;-36
2024/04/23 00:25:48;;;;;;;2.30;1.50;;;;;;;;;;5451825;26;20228;-37
2024/04/23 00:28:14;;;;;;;1.50;1.40;;;;;;;;;;5444961;26;20274;-36
2024/04/23 00:30:39;;;;;;;1.52;1.40;;;;;;;;;;5451213;26;20274;-36
2024/04/23 00:33:06;;;;;;;2.22;1.50;;;;;;;;;;5446346;26;20226;-36
2024/04/23 00:35:32;;;;;;;1.55;1.40;;;;;;;;;;5449931;26;20227;-37
2024/04/23 00:37:58;;;;;;;2.78;1.58;;;;;;;;;;5446654;26;20274;-37
2024/04/23 00:40:24;;;;;;;1.42;1.25;;;;;;;;;;5443485;26;20236;-36
2024/04/23 00:42:49;;;;;;;2.72;1.40;;;;;;;;;;5447905;26;20324;-36
2024/04/23 00:45:17;;;;;;;1.67;1.40;;;;;;;;;;5446330;26;20479;-36
2024/04/23 00:47:43;;;;;;;1.88;1.60;;;;;;;;;;5446421;26;20538;-35
2024/04/23 00:50:10;;;;;;;3.05;1.45;;;;;;;;;;5442500;26;20232;-36
2024/04/23 00:52:36;;;;;;;1.40;1.30;;;;;;;;;;5448413;26;20275;-36
2024/04/23 00:55:01;;;;;;;1.35;1.25;;;;;;;;;;5455028;26;20290;-35
2024/04/23 00:57:27;;;;;;;2.45;1.40;;;;;;;;;;5450653;26;20329;-36
2024/04/23 00:59:53;;;;;;;2.05;1.38;;;;;;;;;;5455453;26;20306;-36
2024/04/23 01:02:19;;;;;;;1.40;1.30;;;;;;;;;;5448879;26;20232;-36
2024/04/23 01:04:45;;;;;;;1.90;1.40;;;;;;;;;;5446312;26;20239;-36
2024/04/23 01:07:11;;;;;;;1.48;1.20;;;;;;;;;;5450244;26;20505;-36
2024/04/23 01:09:37;;;;;;;1.27;1.17;;;;;;;;;;5455368;26;20243;-36
2024/04/23 01:12:03;;;;;;;2.08;1.40;;;;;;;;;;5446046;26;20329;-36
2024/04/23 01:14:29;;;;;;;2.97;1.40;;;;;;;;;;5448592;26;20478;-36
2024/04/23 01:16:56;;;;;;;1.85;1.65;;;;;;;;;;5442167;26;20346;-36
2024/04/23 01:19:43;;;;;;;1.42;1.33;;;;;;;;;;5441734;26;20231;-36
2024/04/23 01:22:27;;;;;;;1.40;1.30;;;;;;;;;;5452598;26;20239;-37
2024/04/23 01:24:59;;;;;;;1.25;1.15;;;;;;;;;;5453178;26;20281;-36
2024/04/23 01:27:25;;;;;;;1.42;1.20;;;;;;;;;;5449521;26;20235;-37
2024/04/23 01:29:51;;;;;;;1.58;1.30;;;;;;;;;;5438779;26;20278;-36
2024/04/23 01:32:17;;;;;;;2.83;1.50;;;;;;;;;;5447516;26;20810;-36
2024/04/23 01:34:43;;;;;;;2.30;1.58;;;;;;;;;;5450343;26;20243;-36
2024/04/23 01:37:10;;;;;;;1.52;1.35;;;;;;;;;;5446003;26;20469;-36
2024/04/23 01:39:36;;;;;;;2.40;1.55;;;;;;;;;;5452162;26;20513;-36
2024/04/23 01:42:02;;;;;;;1.35;1.20;;;;;;;;;;5448179;26;20753;-36
2024/04/23 01:44:29;;;;;;;1.30;1.20;;;;;;;;;;5454871;26;20266;-37
2024/04/23 01:47:13;;;;;;;1.33;1.13;;;;;;;;;;5435246;26;20688;-36
2024/04/23 01:49:40;;;;;;;1.60;1.40;;;;;;;;;;5446831;26;20239;-36
2024/04/23 01:52:06;;;;;;;1.52;1.30;;;;;;;;;;5445096;26;20486;-36
2024/04/23 01:54:32;;;;;;;1.98;1.83;;;;;;;;;;5454391;26;20223;-36
2024/04/23 01:57:00;;;;;;;1.27;1.17;;;;;;;;;;5442615;26;20232;-36
2024/04/23 01:59:26;;;;;;;1.90;1.50;;;;;;;;;;5453937;26;20286;-36
2024/04/23 02:01:53;;;;;;;1.25;1.15;;;;;;;;;;5455087;26;20231;-36
2024/04/23 02:04:19;;;;;;;1.60;1.48;;;;;;;;;;5449334;26;20464;-36
2024/04/23 02:06:46;;;;;;;3.35;1.40;;;;;;;;;;5440858;26;20278;-36
2024/04/23 02:09:12;;;;;;;1.20;1.10;;;;;;;;;;5454196;26;20294;-36
2024/04/23 02:11:40;;;;;;;1.55;1.27;;;;;;;;;;5441846;26;20262;-36
2024/04/23 02:14:06;;;;;;;1.27;1.08;;;;;;;;;;5444154;26;20229;-36
2024/04/23 02:16:32;;;;;;;1.63;1.27;;;;;;;;;;5448973;26;20223;-36
2024/04/23 02:18:58;;;;;;;1.52;1.23;;;;;;;;;;5450852;26;20446;-37
2024/04/23 02:21:24;;;;;;;1.52;1.40;;;;;;;;;;5453999;26;20227;-36
2024/04/23 02:23:50;;;;;;;1.20;1.10;;;;;;;;;;5439817;26;20282;-36
2024/04/23 02:26:15;;;;;;;1.65;1.27;;;;;;;;;;5453714;26;20296;-36
2024/04/23 02:28:41;;;;;;;1.77;1.30;;;;;;;;;;5445431;26;20306;-37
2024/04/23 02:31:07;;;;;;;1.35;1.20;;;;;;;;;;5455015;26;20219;-36
2024/04/23 02:33:33;;;;;;;2.35;1.40;;;;;;;;;;5453532;26;20309;-36
2024/04/23 02:35:59;;;;;;;1.35;1.25;;;;;;;;;;5452609;26;20587;-36
2024/04/23 02:38:25;;;;;;;1.20;1.10;;;;;;;;;;5451262;26;20487;-36
2024/04/23 02:40:51;;;;;;;1.48;1.38;;;;;;;;;;5442517;26;20695;-36
2024/04/23 02:43:17;;;;;;;1.63;1.20;;;;;;;;;;5453571;26;20231;-36
2024/04/23 02:45:43;;;;;;;1.85;1.30;;;;;;;;;;5452617;26;20228;-36
2024/04/23 02:48:09;;;;;;;1.35;1.25;;;;;;;;;;5446359;26;20486;-36
2024/04/23 02:50:34;;;;;;;1.17;1.05;;;;;;;;;;5455459;26;20265;-36
2024/04/23 02:53:00;;;;;;;1.23;1.13;;;;;;;;;;5447630;26;20282;-36
2024/04/23 02:55:26;;;;;;;1.75;1.30;;;;;;;;;;5454015;26;20610;-36
2024/04/23 02:57:52;;;;;;;2.92;1.30;;;;;;;;;;5450839;26;20269;-36
2024/04/23 03:00:18;;;;;;;1.35;1.25;;;;;;;;;;5439313;26;20884;-37
2024/04/23 03:02:44;;;;;;;1.23;1.10;;;;;;;;;;5438386;26;20574;-36
2024/04/23 03:05:10;;;;;;;1.20;1.10;;;;;;;;;;5444451;26;20245;-36
2024/04/23 03:07:36;;;;;;;1.35;1.25;;;;;;;;;;5445829;26;20282;-36
2024/04/23 03:10:02;;;;;;;2.53;1.15;;;;;;;;;;5450531;26;20236;-36
2024/04/23 03:12:28;;;;;;;3.55;1.20;;;;;;;;;;5441751;26;20875;-35
2024/04/23 03:14:54;;;;;;;3.67;1.27;;;;;;;;;;5449430;26;20606;-34
2024/04/23 03:17:20;;;;;;;2.67;1.30;;;;;;;;;;5438110;26;20286;-37
2024/04/23 03:19:45;;;;;;;3.08;1.45;;;;;;;;;;5445181;26;20231;-33
2024/04/23 03:22:11;;;;;;;1.20;1.10;;;;;;;;;;5452793;26;20285;-33
2024/04/23 03:24:38;;;;;;;4.35;1.40;;;;;;;;;;5452247;26;20239;-38
2024/04/23 03:27:04;;;;;;;1.77;1.40;;;;;;;;;;5452508;26;20224;-42
2024/04/23 03:29:30;;;;;;;1.52;1.10;;;;;;;;;;5453297;26;20324;-33
2024/04/23 03:32:00;;;;;;;2.92;1.35;;;;;;;;;;5451517;26;20703;-35
2024/04/23 03:34:26;;;;;;;2.13;1.33;;;;;;;;;;5446389;26;20490;-36
2024/04/23 03:36:52;;;;;;;1.77;1.15;;;;;;;;;;5449545;26;20329;-38
2024/04/23 03:39:18;;;;;;;2.30;1.30;;;;;;;;;;5437073;26;20244;-36
2024/04/23 03:41:56;;;;;;;2.85;1.30;;;;;;;;;;5430726;26;20667;-36
2024/04/23 03:44:22;;;;;;;5.05;1.52;;;;;;;;;;5447045;26;20314;-36
2024/04/23 03:46:48;;;;;;;25.45;3.28;;;;;;;;;;5446697;26;20281;-34
2024/04/23 03:49:14;;;;;;;21.58;4.32;;;;;;;;;;5448362;26;20231;-41
2024/04/23 03:51:40;;;;;;;28.98;4.28;;;;;;;;;;5440699;26;20776;-43
2024/04/23 03:54:06;;;;;;;23.98;3.83;;;;;;;;;;5452237;26;20265;-37
2024/04/23 03:56:32;;;;;;;22.70;4.13;;;;;;;;;;5453110;26;20230;-36
2024/04/23 03:58:58;;;;;;;15.90;3.83;;;;;;;;;;5452207;26;20270;-37
2024/04/23 04:01:24;;;;;;;20.83;3.50;;;;;;;;;;5448829;26;20240;-36
2024/04/23 04:06:35;;;;;;;14.40;3.25;;;;;;;;;;5450841;26;20274;-36
2024/04/23 04:09:01;;;;;;;21.25;3.70;;;;;;;;;;5440447;26;20232;-36
2024/04/23 04:11:32;;;;;;;11.32;3.00;;;;;;;;;;5433787;26;20304;-36
2024/04/23 04:13:59;;;;;;;14.13;2.95;;;;;;;;;;5436271;26;20293;-37
2024/04/23 04:16:24;;;;;;;18.05;3.10;;;;;;;;;;5436862;26;20282;-37
2024/04/23 04:18:51;;;;;;;12.35;3.03;;;;;;;;;;5431532;26;20231;-37
2024/04/23 04:21:17;;;;;;;15.60;3.33;;;;;;;;;;5438210;26;20274;-37
2024/04/23 04:23:43;;;;;;;9.20;2.28;;;;;;;;;;5437749;26;20287;-37
2024/04/23 04:26:12;;;;;;;7.63;3.38;;;;;;;;;;5449204;26;20701;-37
2024/04/23 04:28:44;;;;;;;9.75;2.22;;;;;;;;;;5439500;26;20710;-37
2024/04/23 04:31:12;;;;;;;6.90;2.78;;;;;;;;;;5435190;26;20436;-36
2024/04/23 04:33:38;;;;;;;7.15;2.30;;;;;;;;;;5438411;26;20235;-37
2024/04/23 04:36:04;;;;;;;13.18;3.13;;;;;;;;;;5451889;26;20521;-37
2024/04/23 04:38:31;;;;;;;7.75;2.65;;;;;;;;;;5439284;26;20228;-37
2024/04/23 04:40:57;;;;;;;8.25;2.38;;;;;;;;;;5450698;26;20227;-37
2024/04/23 04:43:23;;;;;;;6.45;2.47;;;;;;;;;;5436212;26;21206;-37
2024/04/23 04:45:49;;;;;;;5.85;2.40;;;;;;;;;;5439043;26;20244;-40
2024/04/23 04:48:15;;;;;;;6.50;2.47;;;;;;;;;;5430000;26;20470;-37
2024/04/23 04:50:41;;;;;;;6.07;2.03;;;;;;;;;;5436636;26;20286;-36
2024/04/23 04:53:07;;;;;;;3.85;1.83;;;;;;;;;;5447538;26;20286;-37
2024/04/23 04:55:33;;;;;;;5.43;1.75;;;;;;;;;;5443267;26;20314;-37
2024/04/23 04:57:58;;;;;;;6.53;2.25;;;;;;;;;;5451245;26;20822;-38
2024/04/23 05:00:24;;;;;;;5.45;2.00;;;;;;;;;;5447314;26;20239;-37
2024/04/23 05:02:50;;;;;;;3.35;1.70;;;;;;;;;;5441075;26;20691;-37
2024/04/23 05:05:17;;;;;;;6.18;2.00;;;;;;;;;;5452693;26;20235;-37
2024/04/23 05:07:42;;;;;;;7.65;2.60;;;;;;;;;;5460180;26;20285;-37
2024/04/23 05:10:08;;;;;;;8.05;1.90;;;;;;;;;;5446008;26;20231;-37
2024/04/23 05:12:36;;;;;;;2.97;1.70;;;;;;;;;;5441371;26;20634;-37
2024/04/23 05:15:02;;;;;;;6.25;2.15;;;;;;;;;;5444771;26;20629;-37
2024/04/23 05:17:28;;;;;;;3.88;2.38;;;;;;;;;;5454720;26;20324;-37
2024/04/23 05:19:54;;;;;;;5.03;1.90;;;;;;;;;;5454054;26;20295;-37
2024/04/23 05:22:23;;;;;;;3.58;1.95;;;;;;;;;;5454115;26;20227;-36
2024/04/23 05:24:48;;;;;;;2.45;1.42;;;;;;;;;;5439637;26;20275;-37
2024/04/23 05:27:14;;;;;;;3.38;1.98;;;;;;;;;;5443709;26;20229;-37
2024/04/23 05:29:43;;;;;;;2.80;1.77;;;;;;;;;;5446012;26;20252;-37
2024/04/23 05:34:55;;;;;;;2.72;2.00;;;;;;;;;;5447388;26;20374;-37
2024/04/23 05:37:21;;;;;;;2.08;1.35;;;;;;;;;;5447535;26;20231;-37
2024/04/23 05:39:47;;;;;;;3.67;1.90;;;;;;;;;;5456814;26;20231;-37
2024/04/23 05:42:13;;;;;;;4.53;1.75;;;;;;;;;;5438918;26;20478;-37
2024/04/23 05:44:39;;;;;;;3.38;1.65;;;;;;;;;;5454893;26;20220;-37
2024/04/23 05:47:05;;;;;;;4.32;1.90;;;;;;;;;;5449378;26;20231;-37
2024/04/23 05:49:49;;;;;;;4.55;1.80;;;;;;;;;;5455312;26;20224;-37
2024/04/23 05:52:34;;;;;;;4.43;1.85;;;;;;;;;;5438666;26;20223;-36
2024/04/23 05:55:19;;;;;;;2.28;1.50;;;;;;;;;;5429302;26;20232;-36
2024/04/23 05:57:45;;;;;;;2.88;1.73;;;;;;;;;;5455575;26;20219;-37
2024/04/23 06:00:11;;;;;;;3.08;1.50;;;;;;;;;;5449979;26;20287;-37
2024/04/23 06:02:37;;;;;;;4.25;1.90;;;;;;;;;;5449528;26;20243;-37
2024/04/23 06:05:03;;;;;;;2.72;1.63;;;;;;;;;;5445210;26;20274;-37
2024/04/23 06:07:29;;;;;;;1.60;1.50;;;;;;;;;;5456121;26;20334;-37
2024/04/23 06:09:54;;;;;;;2.35;1.50;;;;;;;;;;5443940;26;20321;-37
2024/04/23 06:12:20;;;;;;;3.05;1.67;;;;;;;;;;5441799;26;20694;-37
2024/04/23 06:14:46;;;;;;;4.05;1.98;;;;;;;;;;5454322;26;20276;-37
2024/04/23 06:17:25;;;;;;;3.47;1.42;;;;;;;;;;5453619;26;20283;-37
2024/04/23 06:19:52;;;;;;;1.73;1.38;;;;;;;;;;5443126;26;20600;-37
2024/04/23 06:22:18;;;;;;;2.53;1.75;;;;;;;;;;5451481;26;20276;-37
2024/04/23 06:24:44;;;;;;;2.75;1.77;;;;;;;;;;5430927;26;20587;-36
2024/04/23 06:27:10;;;;;;;2.42;1.55;;;;;;;;;;5443947;26;20220;-36
2024/04/23 06:29:36;;;;;;;1.73;1.55;;;;;;;;;;5455990;26;20270;-36
2024/04/23 06:32:02;;;;;;;3.22;1.88;;;;;;;;;;5442764;26;20223;-37
2024/04/23 06:34:27;;;;;;;2.03;1.40;;;;;;;;;;5451296;26;20652;-37
2024/04/23 06:36:53;;;;;;;2.22;1.52;;;;;;;;;;5450048;26;20227;-37
2024/04/23 06:39:19;;;;;;;4.18;1.88;;;;;;;;;;5452921;26;20453;-37
2024/04/23 06:41:45;;;;;;;2.58;1.70;;;;;;;;;;5443957;26;20219;-37
2024/04/23 06:44:12;;;;;;;1.85;1.50;;;;;;;;;;5454119;26;20330;-36
2024/04/23 06:46:38;;;;;;;3.42;1.60;;;;;;;;;;5454971;26;20571;-37
2024/04/23 06:49:04;;;;;;;2.55;1.35;;;;;;;;;;5451564;26;20270;-37
2024/04/23 06:51:30;;;;;;;2.03;1.60;;;;;;;;;;5434928;26;20267;-37
2024/04/23 06:53:56;;;;;;;2.63;1.73;;;;;;;;;;5433993;26;20254;-37
2024/04/23 06:56:22;;;;;;;2.58;1.50;;;;;;;;;;5445871;26;20227;-37
2024/04/23 06:58:48;;;;;;;2.63;1.73;;;;;;;;;;5448662;26;20274;-36
2024/04/23 07:01:14;;;;;;;2.47;1.50;;;;;;;;;;5437851;26;20779;-36
2024/04/23 07:03:40;;;;;;;3.42;1.60;;;;;;;;;;5451490;26;20517;-37
2024/04/23 07:06:07;;;;;;;1.77;1.42;;;;;;;;;;5456115;26;20274;-37
2024/04/23 07:08:33;;;;;;;2.10;1.38;;;;;;;;;;5438194;26;20622;-37
2024/04/23 07:10:59;;;;;;;1.60;1.38;;;;;;;;;;5441734;26;20278;-37
2024/04/23 07:13:24;;;;;;;1.75;1.45;;;;;;;;;;5448995;26;20282;-37
2024/04/23 07:15:50;;;;;;;1.95;1.17;;;;;;;;;;5449491;26;20236;-37
2024/04/23 07:18:16;;;;;;;1.58;1.40;;;;;;;;;;5438126;26;20282;-37
2024/04/23 07:20:42;;;;;;;1.40;1.30;;;;;;;;;;5438991;26;20308;-37
2024/04/23 07:23:08;;;;;;;1.83;1.48;;;;;;;;;;5443808;26;20236;-37
2024/04/23 07:25:34;;;;;;;1.70;1.38;;;;;;;;;;5446664;26;20258;-37
2024/04/23 07:28:00;;;;;;;1.83;1.50;;;;;;;;;;5440017;26;20491;-37
2024/04/23 07:30:27;;;;;;;1.98;1.50;;;;;;;;;;5438255;26;20221;-37
2024/04/23 07:32:54;;;;;;;1.75;1.20;;;;;;;;;;5450070;26;20462;-37
2024/04/23 07:35:21;;;;;;;3.47;1.60;;;;;;;;;;5452554;26;20610;-37
2024/04/23 07:37:47;;;;;;;1.30;1.20;;;;;;;;;;5449128;26;20235;-37
2024/04/23 07:40:13;;;;;;;1.67;1.40;;;;;;;;;;5449991;26;20231;-36
2024/04/23 07:42:38;;;;;;;2.30;1.15;;;;;;;;;;5445093;26;20325;-37
2024/04/23 07:45:05;;;;;;;1.83;1.30;;;;;;;;;;5438451;26;20252;-37
2024/04/23 07:47:32;;;;;;;1.58;1.40;;;;;;;;;;5453022;26;20274;-37
2024/04/23 07:49:58;;;;;;;1.35;1.20;;;;;;;;;;5455038;26;20618;-36
2024/04/23 07:52:26;;;;;;;1.35;0.90;;;;;;;;;;5441653;26;20265;-37
2024/04/23 07:54:52;;;;;;;1.45;1.30;;;;;;;;;;5448661;26;20231;-37
2024/04/23 07:57:18;;;;;;;1.20;1.10;;;;;;;;;;5444777;26;20279;-37
2024/04/23 07:59:44;;;;;;;1.23;1.13;;;;;;;;;;5444333;26;20324;-37
2024/04/23 08:02:10;;;;;;;1.83;1.02;;;;;;;;;;5442543;26;20320;-37
2024/04/23 08:04:36;;;;;;;1.98;1.42;;;;;;;;;;5440440;26;20223;-37
2024/04/23 08:07:02;;;;;;;1.73;1.10;;;;;;;;;;5434785;26;20227;-36
2024/04/23 08:09:28;;;;;;;1.73;1.20;;;;;;;;;;5435509;26;20251;-36
2024/04/23 08:11:54;;;;;;;1.30;0.98;;;;;;;;;;5444184;26;20759;-37
2024/04/23 08:14:20;;;;;;;1.45;1.13;;;;;;;;;;5433660;26;20225;-36
2024/04/23 08:16:49;;;;;;;1.33;1.00;;;;;;;;;;5444143;26;20224;-36
2024/04/23 08:19:15;;;;;;;1.67;0.93;;;;;;;;;;5439095;26;20255;-37
2024/04/23 08:21:42;;;;;;;1.40;1.20;;;;;;;;;;5450891;26;20239;-37
2024/04/23 08:24:08;;;;;;;1.90;1.17;;;;;;;;;;5443685;26;20274;-37
2024/04/23 08:26:34;;;;;;;0.85;0.85;;;;;;;;;;5448214;26;20645;-36
2024/04/23 08:29:00;;;;;;;1.10;1.00;;;;;;;;;;5449382;26;20231;-37
2024/04/23 08:31:26;;;;;;;1.20;1.10;;;;;;;;;;5434447;26;20221;-36
2024/04/23 08:33:52;;;;;;;1.33;0.88;;;;;;;;;;5452583;26;20270;-36
2024/04/23 08:36:18;;;;;;;1.23;1.13;;;;;;;;;;5436121;26;20232;-37
2024/04/23 08:38:44;;;;;;;1.30;1.20;;;;;;;;;;5452116;26;20251;-37
2024/04/23 08:41:26;;;;;;;1.23;1.10;;;;;;;;;;5453693;26;20586;-36
2024/04/23 08:44:01;;;;;;;1.20;1.00;;;;;;;;;;5443759;26;20240;-37
2024/04/23 08:46:27;;;;;;;1.92;1.15;;;;;;;;;;5442878;26;20246;-37
2024/04/23 08:48:54;;;;;;;0.95;0.88;;;;;;;;;;5446567;26;20656;-36
2024/04/23 08:51:21;;;;;;;2.35;1.20;;;;;;;;;;5453528;26;20353;-37
2024/04/23 08:53:49;;;;;;;1.20;1.08;;;;;;;;;;5443726;26;20232;-36
2024/04/23 08:56:22;;;;;;;1.52;1.15;;;;;;;;;;5453729;26;20304;-36
2024/04/23 08:58:48;;;;;;;1.77;1.00;;;;;;;;;;5436623;26;20282;-36
2024/04/23 09:01:22;;;;;;;1.10;0.90;;;;;;;;;;5443143;26;20270;-36
2024/04/23 09:03:49;;;;;;;1.48;1.00;;;;;;;;;;5442192;26;20316;-36
2024/04/23 09:06:16;;;;;;;0.80;0.80;;;;;;;;;;5448247;26;20254;-37
2024/04/23 09:08:42;;;;;;;1.45;0.80;;;;;;;;;;5455111;26;20227;-37
2024/04/23 09:11:08;;;;;;;1.08;0.95;;;;;;;;;;5448194;26;20223;-37
2024/04/23 09:13:34;;;;;;;0.90;0.90;;;;;;;;;;5441082;26;20265;-37
2024/04/23 09:16:00;;;;;;;0.82;0.82;;;;;;;;;;5448901;26;20233;-37
2024/04/23 09:18:26;;;;;;;0.80;0.80;;;;;;;;;;5439979;26;20606;-37
2024/04/23 09:20:52;;;;;;;1.58;1.05;;;;;;;;;;5454601;26;20277;-37
2024/04/23 09:23:18;;;;;;;1.17;1.08;;;;;;;;;;5452110;26;20606;-37
2024/04/23 09:25:44;;;;;;;1.63;1.13;;;;;;;;;;5452993;26;20223;-37
2024/04/23 09:28:20;;;;;;;1.05;0.95;;;;;;;;;;5452567;26;20262;-36
2024/04/23 09:30:46;;;;;;;0.80;0.80;;;;;;;;;;5445350;26;20223;-37
2024/04/23 09:33:12;;;;;;;0.88;0.80;;;;;;;;;;5434102;26;20224;-38
2024/04/23 09:35:38;;;;;;;0.90;0.70;;;;;;;;;;5438024;26;20477;-37
2024/04/23 09:38:05;;;;;;;0.73;0.73;;;;;;;;;;5441255;26;20697;-37
2024/04/23 09:40:37;;;;;;;0.80;0.80;;;;;;;;;;5452025;26;20320;-37
2024/04/23 09:43:03;;;;;;;3.13;1.00;;;;;;;;;;5436438;26;20254;-37
2024/04/23 09:45:29;;;;;;;1.38;0.90;;;;;;;;;;5449443;26;20603;-37
2024/04/23 09:47:55;;;;;;;1.80;1.20;;;;;;;;;;5455995;26;20227;-37
2024/04/23 09:50:21;;;;;;;1.55;0.90;;;;;;;;;;5451243;26;20267;-37
2024/04/23 09:52:48;;;;;;;0.90;0.90;;;;;;;;;;5447716;26;21027;-37
2024/04/23 09:55:15;;;;;;;0.80;0.80;;;;;;;;;;5451696;26;20252;-37
2024/04/23 09:57:41;;;;;;;3.03;0.90;;;;;;;;;;5452291;26;20223;-37
2024/04/23 10:00:09;;;;;;;1.48;1.05;;;;;;;;;;5451434;26;20330;-37
2024/04/23 10:02:38;;;;;;;1.13;0.90;;;;;;;;;;5448338;26;20235;-37
2024/04/23 10:05:04;;;;;;;4.22;0.85;;;;;;;;;;5451904;26;20282;-36
2024/04/23 10:07:49;;;;;;;1.40;1.00;;;;;;;;;;5446520;26;20223;-36
2024/04/23 10:10:17;;;;;;;0.77;0.68;;;;;;;;;;5448662;26;20253;-36
2024/04/23 10:12:46;;;;;;;1.13;0.82;;;;;;;;;;5449154;26;20794;-36
2024/04/23 10:15:15;;;;;;;2.40;1.05;;;;;;;;;;5448396;26;20228;-37
2024/04/23 10:17:51;;;;;;;1.40;0.95;;;;;;;;;;5449766;26;20228;-37
2024/04/23 10:20:21;;;;;;;0.88;0.73;;;;;;;;;;5448458;26;20308;-37
2024/04/23 10:22:47;;;;;;;1.00;0.70;;;;;;;;;;5445658;26;20235;-37
2024/04/23 10:25:13;;;;;;;1.40;0.88;;;;;;;;;;5452448;26;20235;-37
2024/04/23 10:27:40;;;;;;;1.13;0.88;;;;;;;;;;5445750;26;20240;-38
2024/04/23 10:30:07;;;;;;;0.85;0.65;;;;;;;;;;5443344;26;20235;-37
2024/04/23 10:32:33;;;;;;;0.77;0.77;;;;;;;;;;5453907;26;20295;-37
2024/04/23 10:35:00;;;;;;;1.23;0.82;;;;;;;;;;5450980;26;20275;-38
2024/04/23 10:37:26;;;;;;;1.02;0.80;;;;;;;;;;5441539;26;20232;-37
2024/04/23 10:39:52;;;;;;;0.75;0.75;;;;;;;;;;5442168;26;20233;-38
2024/04/23 10:42:19;;;;;;;0.80;0.80;;;;;;;;;;5446481;26;20232;-38
2024/04/23 10:44:46;;;;;;;0.85;0.85;;;;;;;;;;5444620;26;20239;-37
2024/04/23 10:47:11;;;;;;;1.65;0.75;;;;;;;;;;5454336;26;20266;-37
2024/04/23 10:49:38;;;;;;;0.88;0.70;;;;;;;;;;5449782;26;20235;-37
2024/04/23 10:52:04;;;;;;;0.75;0.75;;;;;;;;;;5441712;26;20304;-37
2024/04/23 10:54:30;;;;;;;0.68;0.68;;;;;;;;;;5453321;26;20338;-37
2024/04/23 10:57:07;;;;;;;0.90;0.88;;;;;;;;;;5454911;26;20231;-37
2024/04/23 10:59:33;;;;;;;2.85;1.00;;;;;;;;;;5447760;26;20235;-35
2024/04/23 11:02:00;;;;;;;4.32;1.05;;;;;;;;;;5445466;26;20232;-35
2024/04/23 11:04:35;;;;;;;6.63;1.02;;;;;;;;;;5441560;26;20488;-45
2024/04/23 11:07:04;;;;;;;2.97;1.15;;;;;;;;;;5435760;26;20290;-40
2024/04/23 11:09:34;;;;;;;2.78;1.10;;;;;;;;;;5431516;26;20227;-36
2024/04/23 11:12:00;;;;;;;1.52;0.80;;;;;;;;;;5439310;26;20231;-37
2024/04/23 11:14:33;;;;;;;6.88;0.80;;;;;;;;;;5431424;26;20271;-34
2024/04/23 11:17:00;;;;;;;5.05;1.50;;;;;;;;;;5438819;26;20235;-39
2024/04/23 11:19:34;;;;;;;6.38;1.38;;;;;;;;;;5437381;26;20245;-36
2024/04/23 11:22:01;;;;;;;3.15;0.90;;;;;;;;;;5433584;26;20231;-35
2024/04/23 11:24:29;;;;;;;5.25;1.00;;;;;;;;;;5436690;26;20278;-40
2024/04/23 11:26:55;;;;;;;6.45;0.98;;;;;;;;;;5439106;26;20243;-36
2024/04/23 11:29:21;;;;;;;2.55;1.08;;;;;;;;;;5432788;26;20232;-36
2024/04/23 11:31:50;;;;;;;2.72;1.25;;;;;;;;;;5433652;26;20692;-36
2024/04/23 11:34:16;;;;;;;11.63;1.15;;;;;;;;;;5427357;26;20492;-36
2024/04/23 11:36:42;;;;;;;2.55;0.80;;;;;;;;;;5433104;26;20603;-36
2024/04/23 11:39:08;;;;;;;5.65;1.17;;;;;;;;;;5442409;26;20278;-35
2024/04/23 11:41:34;;;;;;;2.28;0.98;;;;;;;;;;5433503;26;20243;-36
2024/04/23 11:44:01;;;;;;;3.17;0.90;;;;;;;;;;5428926;26;20237;-35
2024/04/23 11:46:27;;;;;;;7.10;1.10;;;;;;;;;;5430694;26;20251;-35
2024/04/23 11:48:53;;;;;;;1.17;0.80;;;;;;;;;;5436529;26;20232;-36
2024/04/23 11:51:19;;;;;;;5.25;1.02;;;;;;;;;;5439962;26;20350;-35
2024/04/23 11:53:45;;;;;;;5.78;1.05;;;;;;;;;;5453353;26;20583;-36
2024/04/23 11:56:11;;;;;;;2.22;0.90;;;;;;;;;;5441755;26;20231;-35
2024/04/23 11:58:38;;;;;;;2.00;0.80;;;;;;;;;;5448470;26;20265;-35
2024/04/23 12:01:04;;;;;;;3.58;0.85;;;;;;;;;;5436570;26;20640;-37
2024/04/23 12:03:30;;;;;;;2.00;0.98;;;;;;;;;;5449813;26;20224;-36
2024/04/23 12:05:56;;;;;;;4.20;0.93;;;;;;;;;;5439168;26;20231;-36
2024/04/23 12:08:22;;;;;;;4.32;1.00;;;;;;;;;;5448206;26;20236;-35
2024/04/23 12:10:48;;;;;;;1.42;0.70;;;;;;;;;;5431379;26;20232;-36
2024/04/23 12:13:20;;;;;;;2.60;0.68;;;;;;;;;;5435138;26;20371;-36
2024/04/23 12:15:46;;;;;;;5.35;0.70;;;;;;;;;;5445997;26;20228;-36
2024/04/23 12:18:12;;;;;;;2.55;0.70;;;;;;;;;;5447667;26;20223;-36
2024/04/23 12:20:38;;;;;;;1.00;0.70;;;;;;;;;;5439619;26;20231;-36
2024/04/23 12:23:09;;;;;;;4.05;0.82;;;;;;;;;;5446805;26;20231;-36
2024/04/23 12:25:35;;;;;;;0.98;0.60;;;;;;;;;;5451981;26;20231;-35
2024/04/23 12:28:01;;;;;;;2.95;0.93;;;;;;;;;;5444767;26;20285;-36
2024/04/23 12:30:27;;;;;;;2.42;0.75;;;;;;;;;;5436426;26;20573;-35
2024/04/23 12:32:54;;;;;;;2.00;0.65;;;;;;;;;;5447790;26;20227;-35
2024/04/23 12:35:20;;;;;;;2.72;0.68;;;;;;;;;;5436230;26;20501;-36
2024/04/23 12:37:46;;;;;;;1.38;0.63;;;;;;;;;;5444642;26;20274;-36
2024/04/23 12:40:12;;;;;;;4.30;0.80;;;;;;;;;;5451884;26;20220;-36
2024/04/23 12:42:39;;;;;;;0.90;0.55;;;;;;;;;;5446987;26;20739;-36
2024/04/23 12:45:05;;;;;;;2.30;0.70;;;;;;;;;;5448764;26;20491;-35
2024/04/23 12:47:31;;;;;;;3.13;0.93;;;;;;;;;;5439103;26;20227;-36
2024/04/23 12:49:57;;;;;;;0.77;0.50;;;;;;;;;;5450254;26;20271;-36
2024/04/23 12:52:23;;;;;;;3.90;0.90;;;;;;;;;;5443905;26;20232;-36
2024/04/23 12:54:49;;;;;;;13.75;0.90;;;;;;;;;;5437631;26;20287;-36
2024/04/23 12:57:15;;;;;;;2.28;0.90;;;;;;;;;;5435220;26;20614;-36
2024/04/23 12:59:41;;;;;;;5.03;0.82;;;;;;;;;;5447502;26;20243;-36
2024/04/23 13:02:07;;;;;;;2.83;0.90;;;;;;;;;;5436449;26;20691;-36
2024/04/23 13:04:33;;;;;;;3.53;0.85;;;;;;;;;;5437649;26;20412;-36
2024/04/23 13:06:59;;;;;;;1.00;0.63;;;;;;;;;;5444764;26;20240;-35
2024/04/23 13:09:25;;;;;;;1.27;0.60;;;;;;;;;;5433054;26;20283;-36
2024/04/23 13:11:51;;;;;;;1.85;0.60;;;;;;;;;;5437153;26;20228;-36
2024/04/23 13:14:17;;;;;;;1.25;0.75;;;;;;;;;;5444358;26;20271;-36
2024/04/23 13:16:43;;;;;;;0.85;0.65;;;;;;;;;;5443521;26;20243;-36
2024/04/23 13:19:09;;;;;;;1.08;0.63;;;;;;;;;;5450065;26;20314;-36
2024/04/23 13:21:35;;;;;;;1.45;0.60;;;;;;;;;;5437402;26;20243;-36
2024/04/23 13:24:01;;;;;;;2.47;0.60;;;;;;;;;;5438931;26;20294;-36
2024/04/23 13:26:27;;;;;;;0.60;0.60;;;;;;;;;;5443197;26;20274;-36
2024/04/23 13:28:53;;;;;;;1.25;0.70;;;;;;;;;;5435754;26;20528;-36
2024/04/23 13:31:19;;;;;;;0.80;0.80;;;;;;;;;;5437916;26;20281;-36
2024/04/23 13:33:45;;;;;;;1.48;0.85;;;;;;;;;;5442759;26;20252;-36
2024/04/23 13:36:11;;;;;;;1.02;0.70;;;;;;;;;;5440226;26;20715;-36
2024/04/23 13:38:37;;;;;;;2.35;0.60;;;;;;;;;;5445721;26;20494;-36
2024/04/23 13:41:03;;;;;;;1.35;0.80;;;;;;;;;;5444197;26;20325;-36
2024/04/23 13:43:29;;;;;;;0.85;0.60;;;;;;;;;;5439005;26;20253;-36
2024/04/23 13:45:58;;;;;;;0.30;0.30;;;;;;;;;;5447899;26;20233;-36
2024/04/23 13:48:24;;;;;;;1.20;0.70;;;;;;;;;;5443411;26;20615;-36
2024/04/23 13:50:51;;;;;;;0.45;0.45;;;;;;;;;;5455515;26;20279;-37
2024/04/23 13:53:17;;;;;;;0.82;0.70;;;;;;;;;;5452145;26;20270;-36
2024/04/23 13:55:43;;;;;;;1.13;0.60;;;;;;;;;;5455159;26;20239;-37
2024/04/23 13:58:10;;;;;;;2.97;0.65;;;;;;;;;;5449828;26;20735;-36
2024/04/23 14:00:36;;;;;;;1.10;0.70;;;;;;;;;;5436214;26;20268;-36
2024/04/23 14:03:02;;;;;;;0.82;0.70;;;;;;;;;;5453895;26;20228;-36
2024/04/23 14:05:28;;;;;;;0.68;0.68;;;;;;;;;;5441509;26;20458;-36
2024/04/23 14:07:54;;;;;;;4.60;0.65;;;;;;;;;;5453679;26;20243;-36
2024/04/23 14:10:21;;;;;;;2.20;0.65;;;;;;;;;;5441363;26;20288;-36
2024/04/23 14:12:49;;;;;;;0.77;0.60;;;;;;;;;;5433254;26;20345;-36
2024/04/23 14:15:17;;;;;;;1.73;0.80;;;;;;;;;;5440401;26;20228;-36
2024/04/23 14:17:43;;;;;;;3.10;0.98;;;;;;;;;;5434720;26;20505;-37
2024/04/23 14:20:10;;;;;;;3.15;0.70;;;;;;;;;;5453259;26;20231;-36
2024/04/23 14:22:37;;;;;;;1.70;0.73;;;;;;;;;;5450475;26;20231;-36
2024/04/23 14:25:04;;;;;;;2.25;0.90;;;;;;;;;;5444269;26;20253;-36
2024/04/23 14:27:31;;;;;;;1.60;0.60;;;;;;;;;;5446200;26;20248;-36
2024/04/23 14:29:57;;;;;;;0.85;0.80;;;;;;;;;;5434525;26;20247;-36
2024/04/23 14:32:23;;;;;;;2.63;0.90;;;;;;;;;;5435279;26;20607;-36
2024/04/23 14:34:49;;;;;;;1.98;0.80;;;;;;;;;;5442837;26;20278;-36
2024/04/23 14:37:15;;;;;;;0.60;0.60;;;;;;;;;;5452314;26;20883;-36
2024/04/23 14:39:42;;;;;;;1.92;0.70;;;;;;;;;;5445136;26;20339;-36
2024/04/23 14:42:08;;;;;;;1.00;0.68;;;;;;;;;;5441754;26;20239;-37
2024/04/23 14:44:34;;;;;;;1.08;0.90;;;;;;;;;;5439714;26;20266;-36
2024/04/23 14:47:02;;;;;;;2.95;0.70;;;;;;;;;;5453136;26;20228;-36